createdAt,value
2023-02-24T00:02:01.673Z,33.30
2023-02-24T00:07:05.668Z,44.80
2023-02-24T00:12:13.707Z,42.10
2023-02-24T00:17:17.017Z,41.20
2023-02-24T00:22:20.537Z,45.30
2023-02-24T00:27:23.611Z,46.20
2023-02-24T00:32:26.944Z,39.30
2023-02-24T00:37:30.861Z,41.60
2023-02-24T00:42:33.971Z,35.40
2023-02-24T00:47:40.203Z,32.10
2023-02-24T00:52:43.467Z,53.90
2023-02-24T00:57:46.550Z,47.60
2023-02-24T01:02:49.879Z,53.00
2023-02-24T01:07:53.321Z,56.20
2023-02-24T01:12:56.397Z,45.60
2023-02-24T01:17:59.509Z,52.20
2023-02-24T01:23:03.736Z,42.00
2023-02-24T01:28:07.040Z,49.30
2023-02-24T01:33:20.206Z,44.70
2023-02-24T01:38:23.497Z,41.60
2023-02-24T01:43:26.752Z,57.00
2023-02-24T01:48:30.330Z,57.20
2023-02-24T01:53:33.438Z,59.90
2023-02-24T01:58:37.460Z,49.10
2023-02-24T02:03:43.146Z,50.60
2023-02-24T02:08:47.155Z,60.20
2023-02-24T02:13:53.919Z,39.40
2023-02-24T02:19:44.782Z,40.80
2023-02-24T02:24:57.200Z,37.50
2023-02-24T02:30:47.745Z,58.00
2023-02-24T02:36:26.952Z,48.30
2023-02-24T02:41:44.928Z,60.80
2023-02-24T02:47:07.070Z,59.10
2023-02-24T02:52:20.900Z,57.60
2023-02-24T02:57:30.076Z,41.90
2023-02-24T03:02:38.394Z,45.20
2023-02-24T03:07:47.750Z,51.60
2023-02-24T03:12:58.861Z,55.40
2023-02-24T03:18:12.409Z,42.90
2023-02-24T03:23:27.390Z,52.30
2023-02-24T03:28:39.282Z,55.00
2023-02-24T03:34:00.851Z,54.50
2023-02-24T03:39:05.963Z,45.80
2023-02-24T03:44:12.053Z,38.80
2023-02-24T03:49:17.028Z,35.20
2023-02-24T03:54:38.836Z,50.60
2023-02-24T04:00:17.003Z,57.00
2023-02-24T04:05:27.662Z,46.10
2023-02-24T04:10:52.869Z,46.00
2023-02-24T04:16:17.198Z,53.80
2023-02-24T04:21:23.406Z,52.70
2023-02-24T04:26:28.997Z,32.50
2023-02-24T04:31:34.223Z,47.10
2023-02-24T04:36:38.649Z,51.50
2023-02-24T04:41:43.599Z,37.00
2023-02-24T04:46:49.948Z,43.30
2023-02-24T04:51:53.532Z,40.50
2023-02-24T04:56:58.909Z,26.50
2023-02-24T05:02:02.469Z,32.10
2023-02-24T05:07:05.588Z,38.00
2023-02-24T05:12:09.812Z,41.30
2023-02-24T05:17:16.642Z,39.20
2023-02-24T05:22:19.712Z,35.90
2023-02-24T05:27:23.126Z,32.90
2023-02-24T05:32:26.414Z,33.10
2023-02-24T05:37:29.676Z,27.10
2023-02-24T05:42:35.406Z,30.40
2023-02-24T05:47:40.317Z,31.40
2023-02-24T05:52:46.022Z,28.90
2023-02-24T05:57:51.097Z,29.80
2023-02-24T06:02:54.233Z,25.60
2023-02-24T06:08:12.049Z,21.10
2023-02-24T06:13:15.147Z,22.90
2023-02-24T06:18:18.189Z,20.80
2023-02-24T06:23:21.384Z,24.90
2023-02-24T06:28:25.506Z,24.10
2023-02-24T06:33:28.797Z,23.30
2023-02-24T06:38:35.022Z,20.70
2023-02-24T06:43:41.269Z,21.20
2023-02-24T06:48:44.356Z,22.10
2023-02-24T06:53:47.394Z,20.80
2023-02-24T06:58:55.453Z,20.30
2023-02-24T07:04:08.280Z,13.80
2023-02-24T07:09:15.869Z,21.10
2023-02-24T07:14:22.442Z,13.70
2023-02-24T07:19:30.004Z,14.20
2023-02-24T07:24:37.272Z,22.60
2023-02-24T07:29:40.368Z,21.00
2023-02-24T07:34:44.447Z,20.10
2023-02-24T07:39:47.692Z,10.10
2023-02-24T07:44:50.996Z,21.50
2023-02-24T07:49:55.739Z,23.50
2023-02-24T07:54:58.836Z,20.40
2023-02-24T08:00:17.220Z,21.20
2023-02-24T08:05:21.372Z,21.50
2023-02-24T08:10:24.705Z,16.60
2023-02-24T08:15:34.509Z,22.80
2023-02-24T08:20:52.519Z,22.30
2023-02-24T08:25:56.184Z,20.30
2023-02-24T08:30:59.570Z,23.30
2023-02-24T08:36:04.154Z,17.00
2023-02-24T08:41:17.961Z,21.90
2023-02-24T08:46:33.082Z,17.60
2023-02-24T08:51:44.056Z,14.10
2023-02-24T08:56:56.475Z,17.40
2023-02-24T09:02:34.146Z,16.10
2023-02-24T09:07:42.040Z,18.10
2023-02-24T09:12:45.497Z,19.90
2023-02-24T09:17:50.414Z,23.50
2023-02-24T09:23:09.091Z,20.30
2023-02-24T09:28:19.064Z,23.50
2023-02-24T09:33:39.313Z,19.50
2023-02-24T09:39:03.475Z,21.80
2023-02-24T09:44:18.664Z,21.30
2023-02-24T09:49:40.225Z,12.00
2023-02-24T09:55:15.229Z,17.50
2023-02-24T10:00:26.225Z,12.10
2023-02-24T10:06:12.434Z,21.60
2023-02-24T10:11:17.110Z,7.10
2023-02-24T10:16:24.480Z,13.30
2023-02-24T10:22:00.638Z,11.70
2023-02-24T10:27:17.931Z,13.20
2023-02-24T10:32:43.919Z,8.80
2023-02-24T10:37:49.430Z,5.20
2023-02-24T10:43:11.069Z,8.00
2023-02-24T10:48:42.760Z,6.00
2023-02-24T10:54:21.982Z,5.20
2023-02-24T10:59:25.257Z,9.20
2023-02-24T11:05:04.565Z,6.50
2023-02-24T11:10:33.050Z,8.00
2023-02-24T11:16:06.190Z,5.20
2023-02-24T11:21:12.807Z,7.20
2023-02-24T11:26:23.262Z,7.40
2023-02-24T11:31:59.778Z,5.80
2023-02-24T11:37:14.737Z,6.70
2023-02-24T11:42:38.231Z,8.50
2023-02-24T11:47:53.188Z,5.80
2023-02-24T11:53:02.725Z,11.50
2023-02-24T11:58:32.414Z,10.60
2023-02-24T12:04:25.350Z,9.50
2023-02-24T12:09:54.982Z,8.50
2023-02-24T12:15:10.764Z,6.70
2023-02-24T12:20:50.958Z,7.50
2023-02-24T12:26:20.381Z,3.60
2023-02-24T12:31:53.634Z,51.70
2023-02-24T12:37:20.121Z,17.40
2023-02-24T12:42:38.599Z,10.00
2023-02-24T12:48:18.676Z,6.80
2023-02-24T12:53:52.797Z,8.10
2023-02-24T12:59:05.685Z,6.50
2023-02-24T13:04:11.600Z,8.40
2023-02-24T13:09:30.064Z,8.00
2023-02-24T13:14:37.489Z,13.10
2023-02-24T13:19:44.305Z,13.40
2023-02-24T13:25:09.298Z,5.40
2023-02-24T13:30:12.490Z,5.60
2023-02-24T13:35:15.613Z,6.30
2023-02-24T13:40:23.978Z,5.50
2023-02-24T13:45:33.673Z,9.00
2023-02-24T13:50:44.293Z,3.90
2023-02-24T13:56:10.016Z,5.30
2023-02-24T14:01:19.273Z,10.50
2023-02-24T14:06:27.803Z,4.80
2023-02-24T14:11:37.261Z,10.40
2023-02-24T14:16:41.596Z,5.00
2023-02-24T14:21:50.759Z,11.20
2023-02-24T14:26:58.643Z,15.00
2023-02-24T14:32:02.620Z,13.80
2023-02-24T14:37:08.273Z,14.50
2023-02-24T14:42:15.950Z,16.50
2023-02-24T14:47:23.564Z,14.50
2023-02-24T14:52:55.897Z,7.10
2023-02-24T14:58:18.031Z,13.00
2023-02-24T15:03:29.814Z,10.50
2023-02-24T15:08:46.412Z,7.90
2023-02-24T15:14:16.510Z,5.70
2023-02-24T15:19:38.019Z,12.90
2023-02-24T15:24:41.173Z,8.00
2023-02-24T15:29:58.370Z,13.30
2023-02-24T15:35:02.711Z,9.30
2023-02-24T15:40:24.261Z,9.70
2023-02-24T15:45:38.252Z,7.00
2023-02-24T15:50:41.442Z,5.40
2023-02-24T15:55:45.539Z,14.10
2023-02-24T16:00:52.813Z,7.60
2023-02-24T16:05:56.056Z,9.00
2023-02-24T16:11:00.697Z,8.00
2023-02-24T16:16:06.755Z,8.00
2023-02-24T16:21:09.944Z,14.60
2023-02-24T16:26:23.685Z,9.60
2023-02-24T16:31:28.329Z,6.90
2023-02-24T16:36:31.793Z,11.20
2023-02-24T16:41:35.009Z,6.20
2023-02-24T16:46:41.350Z,15.80
2023-02-24T16:51:44.701Z,10.40
2023-02-24T16:56:48.418Z,9.80
2023-02-24T17:01:51.526Z,7.30
2023-02-24T17:06:54.838Z,9.50
2023-02-24T17:11:58.158Z,9.10
2023-02-24T17:17:01.406Z,9.20
2023-02-24T17:22:05.612Z,8.00
2023-02-24T17:27:11.155Z,9.90
2023-02-24T17:32:14.591Z,12.70
2023-02-24T17:37:18.607Z,14.30
2023-02-24T17:42:21.704Z,8.80
2023-02-24T17:47:25.526Z,10.70
2023-02-24T17:52:31.383Z,7.90
2023-02-24T17:57:35.617Z,7.50
2023-02-24T18:09:17.904Z,11.70
2023-02-24T18:16:22.557Z,11.90
2023-02-24T18:21:26.475Z,9.10
2023-02-24T18:26:34.696Z,11.20
2023-02-24T18:31:44.783Z,11.70
2023-02-24T18:37:04.286Z,7.10
2023-02-24T18:42:18.337Z,10.60
2023-02-24T18:47:23.211Z,13.30
2023-02-24T18:52:28.141Z,14.60
2023-02-24T18:57:31.446Z,13.30
2023-02-24T19:02:34.859Z,12.40
2023-02-24T19:07:38.475Z,13.10
2023-02-24T19:12:41.679Z,8.60
2023-02-24T19:17:46.429Z,10.70
2023-02-24T19:22:51.619Z,10.80
2023-02-24T19:27:55.308Z,13.80
2023-02-24T19:32:58.646Z,16.50
2023-02-24T19:38:02.228Z,18.60
2023-02-24T19:43:05.534Z,18.40
2023-02-24T19:48:09.872Z,13.40
2023-02-24T19:53:13.180Z,12.00
2023-02-24T19:58:16.393Z,10.90
2023-02-24T20:03:20.725Z,12.60
2023-02-24T20:08:23.859Z,10.60
2023-02-24T20:13:27.345Z,16.00
2023-02-24T20:18:30.455Z,18.30
2023-02-24T20:23:34.348Z,20.00
2023-02-24T20:28:37.790Z,13.50
2023-02-24T20:33:43.839Z,12.70
2023-02-24T20:38:47.394Z,10.80
2023-02-24T20:43:51.233Z,9.80
2023-02-24T20:49:01.338Z,10.00
2023-02-24T20:54:07.008Z,16.80
2023-02-24T20:59:17.229Z,17.60
2023-02-24T21:04:22.035Z,19.50
2023-02-24T21:09:25.185Z,15.40
2023-02-24T21:14:28.379Z,20.80
2023-02-24T21:19:31.694Z,13.60
2023-02-24T21:24:35.117Z,15.90
2023-02-24T21:29:38.411Z,14.40
2023-02-24T21:34:41.628Z,15.50
2023-02-24T21:39:44.928Z,17.60
2023-02-24T21:44:51.273Z,14.40
2023-02-24T21:49:55.337Z,17.50
2023-02-24T21:54:58.344Z,20.30
2023-02-24T22:00:02.290Z,18.30
2023-02-24T22:05:06.173Z,10.30
2023-02-24T22:10:15.345Z,49.00
2023-02-24T22:15:18.461Z,72.40
2023-02-24T22:20:21.756Z,50.80
2023-02-24T22:25:25.079Z,73.70
2023-02-24T22:30:28.432Z,36.20
2023-02-24T22:35:35.545Z,36.20
2023-02-24T22:40:39.622Z,44.40
2023-02-24T22:45:42.747Z,28.80
2023-02-24T22:50:46.449Z,18.20
2023-02-24T22:55:49.861Z,14.20
2023-02-24T23:00:54.963Z,13.60
2023-02-24T23:06:02.434Z,20.50
2023-02-24T23:11:27.953Z,17.70
2023-02-24T23:16:35.005Z,21.00
2023-02-24T23:21:42.506Z,14.10
2023-02-24T23:26:58.921Z,16.00
2023-02-24T23:32:02.622Z,12.80
2023-02-24T23:37:06.105Z,14.60
2023-02-24T23:42:10.345Z,13.20
2023-02-24T23:47:14.811Z,14.40
2023-02-24T23:52:18.624Z,15.90
2023-02-24T23:57:22.633Z,17.40
